sensor_id;sensor_type;location;lat;lon;timestamp;P1;durP1;ratioP1;P2;durP2;ratioP2
53261;SDS011;39658;51.090;-1.786;2023-04-21T00:01:45;18.08;;;8.60;;
53261;SDS011;39658;51.090;-1.786;2023-04-21T00:04:12;20.80;;;9.20;;
53261;SDS011;39658;51.090;-1.786;2023-04-21T00:06:39;16.83;;;8.48;;
53261;SDS011;39658;51.090;-1.786;2023-04-21T00:09:06;22.33;;;8.82;;
53261;SDS011;39658;51.090;-1.786;2023-04-21T00:11:36;23.20;;;8.80;;
53261;SDS011;39658;51.090;-1.786;2023-04-21T00:14:03;20.10;;;8.30;;
53261;SDS011;39658;51.090;-1.786;2023-04-21T00:16:30;22.30;;;9.35;;
53261;SDS011;39658;51.090;-1.786;2023-04-21T00:18:56;23.58;;;8.82;;
53261;SDS011;39658;51.090;-1.786;2023-04-21T00:21:23;26.40;;;8.65;;
53261;SDS011;39658;51.090;-1.786;2023-04-21T00:23:50;24.17;;;9.55;;
53261;SDS011;39658;51.090;-1.786;2023-04-21T00:26:17;21.55;;;9.13;;
53261;SDS011;39658;51.090;-1.786;2023-04-21T00:28:46;20.90;;;8.93;;
53261;SDS011;39658;51.090;-1.786;2023-04-21T00:31:13;31.77;;;9.45;;
53261;SDS011;39658;51.090;-1.786;2023-04-21T00:33:39;27.17;;;9.45;;
53261;SDS011;39658;51.090;-1.786;2023-04-21T00:36:06;24.73;;;9.80;;
53261;SDS011;39658;51.090;-1.786;2023-04-21T00:38:33;18.55;;;8.65;;
53261;SDS011;39658;51.090;-1.786;2023-04-21T00:41:00;19.90;;;8.93;;
53261;SDS011;39658;51.090;-1.786;2023-04-21T00:43:27;22.90;;;8.38;;
53261;SDS011;39658;51.090;-1.786;2023-04-21T00:45:55;23.60;;;9.75;;
53261;SDS011;39658;51.090;-1.786;2023-04-21T00:48:22;24.02;;;10.38;;
53261;SDS011;39658;51.090;-1.786;2023-04-21T00:50:49;23.55;;;9.73;;
53261;SDS011;39658;51.090;-1.786;2023-04-21T00:53:16;28.25;;;9.45;;
53261;SDS011;39658;51.090;-1.786;2023-04-21T00:55:43;26.98;;;9.55;;
53261;SDS011;39658;51.090;-1.786;2023-04-21T00:58:10;32.88;;;11.70;;
53261;SDS011;39658;51.090;-1.786;2023-04-21T01:00:37;24.63;;;9.73;;
53261;SDS011;39658;51.090;-1.786;2023-04-21T01:03:06;25.08;;;9.52;;
53261;SDS011;39658;51.090;-1.786;2023-04-21T01:05:33;27.88;;;10.25;;
53261;SDS011;39658;51.090;-1.786;2023-04-21T01:08:00;34.35;;;11.18;;
53261;SDS011;39658;51.090;-1.786;2023-04-21T01:10:27;22.95;;;9.23;;
53261;SDS011;39658;51.090;-1.786;2023-04-21T01:12:54;25.73;;;10.73;;
53261;SDS011;39658;51.090;-1.786;2023-04-21T01:15:20;29.00;;;12.20;;
53261;SDS011;39658;51.090;-1.786;2023-04-21T01:17:47;27.13;;;10.38;;
53261;SDS011;39658;51.090;-1.786;2023-04-21T01:20:15;26.83;;;10.70;;
53261;SDS011;39658;51.090;-1.786;2023-04-21T01:22:43;28.90;;;11.20;;
53261;SDS011;39658;51.090;-1.786;2023-04-21T01:25:11;23.48;;;10.82;;
53261;SDS011;39658;51.090;-1.786;2023-04-21T01:27:37;27.42;;;12.73;;
53261;SDS011;39658;51.090;-1.786;2023-04-21T01:30:05;28.60;;;11.75;;
53261;SDS011;39658;51.090;-1.786;2023-04-21T01:32:34;26.45;;;10.85;;
53261;SDS011;39658;51.090;-1.786;2023-04-21T01:35:01;27.73;;;12.00;;
53261;SDS011;39658;51.090;-1.786;2023-04-21T01:37:29;28.40;;;12.23;;
53261;SDS011;39658;51.090;-1.786;2023-04-21T01:39:59;22.45;;;9.85;;
53261;SDS011;39658;51.090;-1.786;2023-04-21T01:42:29;25.83;;;12.18;;
53261;SDS011;39658;51.090;-1.786;2023-04-21T01:44:57;29.95;;;11.38;;
53261;SDS011;39658;51.090;-1.786;2023-04-21T01:47:24;25.27;;;11.52;;
53261;SDS011;39658;51.090;-1.786;2023-04-21T01:49:51;25.98;;;11.20;;
53261;SDS011;39658;51.090;-1.786;2023-04-21T01:52:18;24.00;;;11.15;;
53261;SDS011;39658;51.090;-1.786;2023-04-21T01:54:45;25.73;;;10.90;;
53261;SDS011;39658;51.090;-1.786;2023-04-21T01:57:14;26.90;;;10.80;;
53261;SDS011;39658;51.090;-1.786;2023-04-21T01:59:41;25.33;;;11.57;;
53261;SDS011;39658;51.090;-1.786;2023-04-21T02:02:08;23.73;;;10.52;;
53261;SDS011;39658;51.090;-1.786;2023-04-21T02:04:34;29.20;;;11.38;;
53261;SDS011;39658;51.090;-1.786;2023-04-21T02:07:01;22.33;;;10.27;;
53261;SDS011;39658;51.090;-1.786;2023-04-21T02:09:28;26.33;;;11.82;;
53261;SDS011;39658;51.090;-1.786;2023-04-21T02:11:55;33.53;;;11.77;;
53261;SDS011;39658;51.090;-1.786;2023-04-21T02:14:23;25.42;;;12.45;;
53261;SDS011;39658;51.090;-1.786;2023-04-21T02:16:50;28.70;;;11.63;;
53261;SDS011;39658;51.090;-1.786;2023-04-21T02:19:17;33.50;;;12.20;;
53261;SDS011;39658;51.090;-1.786;2023-04-21T02:21:44;26.77;;;10.85;;
53261;SDS011;39658;51.090;-1.786;2023-04-21T02:24:11;23.08;;;11.70;;
53261;SDS011;39658;51.090;-1.786;2023-04-21T02:26:37;28.50;;;12.50;;
53261;SDS011;39658;51.090;-1.786;2023-04-21T02:29:05;23.27;;;11.82;;
53261;SDS011;39658;51.090;-1.786;2023-04-21T02:31:33;25.05;;;11.00;;
53261;SDS011;39658;51.090;-1.786;2023-04-21T02:34:00;28.73;;;11.57;;
53261;SDS011;39658;51.090;-1.786;2023-04-21T02:36:26;26.08;;;12.68;;
53261;SDS011;39658;51.090;-1.786;2023-04-21T02:38:53;28.42;;;12.00;;
53261;SDS011;39658;51.090;-1.786;2023-04-21T02:41:20;28.38;;;12.18;;
53261;SDS011;39658;51.090;-1.786;2023-04-21T02:43:47;29.30;;;12.05;;
53261;SDS011;39658;51.090;-1.786;2023-04-21T02:46:14;31.73;;;11.43;;
53261;SDS011;39658;51.090;-1.786;2023-04-21T02:48:42;30.33;;;12.05;;
53261;SDS011;39658;51.090;-1.786;2023-04-21T02:51:12;28.30;;;12.57;;
53261;SDS011;39658;51.090;-1.786;2023-04-21T02:56:07;33.03;;;12.57;;
53261;SDS011;39658;51.090;-1.786;2023-04-21T02:58:34;26.73;;;12.10;;
53261;SDS011;39658;51.090;-1.786;2023-04-21T03:01:01;29.25;;;11.57;;
53261;SDS011;39658;51.090;-1.786;2023-04-21T03:03:29;32.80;;;12.77;;
53261;SDS011;39658;51.090;-1.786;2023-04-21T03:05:57;31.92;;;11.65;;
53261;SDS011;39658;51.090;-1.786;2023-04-21T03:08:25;30.30;;;13.02;;
53261;SDS011;39658;51.090;-1.786;2023-04-21T03:10:51;32.58;;;12.73;;
53261;SDS011;39658;51.090;-1.786;2023-04-21T03:13:19;30.83;;;12.43;;
53261;SDS011;39658;51.090;-1.786;2023-04-21T03:15:46;32.63;;;13.30;;
53261;SDS011;39658;51.090;-1.786;2023-04-21T03:18:12;31.08;;;12.43;;
53261;SDS011;39658;51.090;-1.786;2023-04-21T03:20:39;30.63;;;12.00;;
53261;SDS011;39658;51.090;-1.786;2023-04-21T03:23:07;31.63;;;12.23;;
53261;SDS011;39658;51.090;-1.786;2023-04-21T03:25:34;27.73;;;12.57;;
53261;SDS011;39658;51.090;-1.786;2023-04-21T03:28:03;30.15;;;13.00;;
53261;SDS011;39658;51.090;-1.786;2023-04-21T03:30:30;30.52;;;13.32;;
53261;SDS011;39658;51.090;-1.786;2023-04-21T03:32:56;34.72;;;13.45;;
53261;SDS011;39658;51.090;-1.786;2023-04-21T03:35:23;31.52;;;11.68;;
53261;SDS011;39658;51.090;-1.786;2023-04-21T03:37:51;30.30;;;14.73;;
53261;SDS011;39658;51.090;-1.786;2023-04-21T03:40:19;29.85;;;13.30;;
53261;SDS011;39658;51.090;-1.786;2023-04-21T03:42:46;34.97;;;14.20;;
53261;SDS011;39658;51.090;-1.786;2023-04-21T03:45:12;34.60;;;14.35;;
53261;SDS011;39658;51.090;-1.786;2023-04-21T03:47:39;28.45;;;13.55;;
53261;SDS011;39658;51.090;-1.786;2023-04-21T03:50:06;36.42;;;14.35;;
53261;SDS011;39658;51.090;-1.786;2023-04-21T03:52:33;39.08;;;15.85;;
53261;SDS011;39658;51.090;-1.786;2023-04-21T03:55:00;35.33;;;13.68;;
53261;SDS011;39658;51.090;-1.786;2023-04-21T03:57:28;33.80;;;16.17;;
53261;SDS011;39658;51.090;-1.786;2023-04-21T03:59:55;34.22;;;12.55;;
53261;SDS011;39658;51.090;-1.786;2023-04-21T04:02:21;42.70;;;16.15;;
53261;SDS011;39658;51.090;-1.786;2023-04-21T04:04:48;33.45;;;14.77;;
53261;SDS011;39658;51.090;-1.786;2023-04-21T04:07:15;36.40;;;13.68;;
53261;SDS011;39658;51.090;-1.786;2023-04-21T04:09:42;36.88;;;15.02;;
53261;SDS011;39658;51.090;-1.786;2023-04-21T04:12:09;42.35;;;14.68;;
53261;SDS011;39658;51.090;-1.786;2023-04-21T04:14:37;38.45;;;13.50;;
53261;SDS011;39658;51.090;-1.786;2023-04-21T04:17:04;38.70;;;15.85;;
53261;SDS011;39658;51.090;-1.786;2023-04-21T04:19:32;41.38;;;15.35;;
53261;SDS011;39658;51.090;-1.786;2023-04-21T04:21:59;40.53;;;15.00;;
53261;SDS011;39658;51.090;-1.786;2023-04-21T04:24:26;40.03;;;15.77;;
53261;SDS011;39658;51.090;-1.786;2023-04-21T04:26:53;40.22;;;14.77;;
53261;SDS011;39658;51.090;-1.786;2023-04-21T04:29:21;37.03;;;16.30;;
53261;SDS011;39658;51.090;-1.786;2023-04-21T04:31:50;37.50;;;15.77;;
53261;SDS011;39658;51.090;-1.786;2023-04-21T04:34:17;35.03;;;14.82;;
53261;SDS011;39658;51.090;-1.786;2023-04-21T04:36:43;37.13;;;15.77;;
53261;SDS011;39658;51.090;-1.786;2023-04-21T04:39:11;37.10;;;14.68;;
53261;SDS011;39658;51.090;-1.786;2023-04-21T04:41:38;35.95;;;13.55;;
53261;SDS011;39658;51.090;-1.786;2023-04-21T04:44:05;38.33;;;15.27;;
53261;SDS011;39658;51.090;-1.786;2023-04-21T04:46:33;39.25;;;16.10;;
53261;SDS011;39658;51.090;-1.786;2023-04-21T04:49:01;34.60;;;13.98;;
53261;SDS011;39658;51.090;-1.786;2023-04-21T04:51:28;33.72;;;12.98;;
53261;SDS011;39658;51.090;-1.786;2023-04-21T04:53:56;32.33;;;13.27;;
53261;SDS011;39658;51.090;-1.786;2023-04-21T04:56:23;32.53;;;16.25;;
53261;SDS011;39658;51.090;-1.786;2023-04-21T04:58:50;40.05;;;15.57;;
53261;SDS011;39658;51.090;-1.786;2023-04-21T05:01:16;33.42;;;14.35;;
53261;SDS011;39658;51.090;-1.786;2023-04-21T05:03:44;36.90;;;15.15;;
53261;SDS011;39658;51.090;-1.786;2023-04-21T05:06:13;37.72;;;14.65;;
53261;SDS011;39658;51.090;-1.786;2023-04-21T05:08:40;37.95;;;13.88;;
53261;SDS011;39658;51.090;-1.786;2023-04-21T05:11:06;41.88;;;14.25;;
53261;SDS011;39658;51.090;-1.786;2023-04-21T05:13:33;38.65;;;15.05;;
53261;SDS011;39658;51.090;-1.786;2023-04-21T05:16:00;36.42;;;13.27;;
53261;SDS011;39658;51.090;-1.786;2023-04-21T05:18:27;34.90;;;12.98;;
53261;SDS011;39658;51.090;-1.786;2023-04-21T05:20:54;37.80;;;14.18;;
53261;SDS011;39658;51.090;-1.786;2023-04-21T05:23:22;36.92;;;15.75;;
53261;SDS011;39658;51.090;-1.786;2023-04-21T05:25:49;36.58;;;14.38;;
53261;SDS011;39658;51.090;-1.786;2023-04-21T05:28:16;37.40;;;14.40;;
53261;SDS011;39658;51.090;-1.786;2023-04-21T05:30:43;42.33;;;14.73;;
53261;SDS011;39658;51.090;-1.786;2023-04-21T05:33:09;40.13;;;15.55;;
53261;SDS011;39658;51.090;-1.786;2023-04-21T05:35:36;42.20;;;14.23;;
53261;SDS011;39658;51.090;-1.786;2023-04-21T05:38:03;39.13;;;15.43;;
53261;SDS011;39658;51.090;-1.786;2023-04-21T05:40:32;38.60;;;15.68;;
53261;SDS011;39658;51.090;-1.786;2023-04-21T05:42:58;38.30;;;16.90;;
53261;SDS011;39658;51.090;-1.786;2023-04-21T05:45:25;41.53;;;16.67;;
53261;SDS011;39658;51.090;-1.786;2023-04-21T05:47:52;38.38;;;14.88;;
53261;SDS011;39658;51.090;-1.786;2023-04-21T05:50:19;37.22;;;14.85;;
53261;SDS011;39658;51.090;-1.786;2023-04-21T05:52:45;39.33;;;15.25;;
53261;SDS011;39658;51.090;-1.786;2023-04-21T05:55:12;39.08;;;17.23;;
53261;SDS011;39658;51.090;-1.786;2023-04-21T05:57:40;43.17;;;16.63;;
53261;SDS011;39658;51.090;-1.786;2023-04-21T06:00:07;41.72;;;14.98;;
53261;SDS011;39658;51.090;-1.786;2023-04-21T06:02:35;46.70;;;16.10;;
53261;SDS011;39658;51.090;-1.786;2023-04-21T06:05:02;39.58;;;15.25;;
53261;SDS011;39658;51.090;-1.786;2023-04-21T06:07:29;39.38;;;14.27;;
53261;SDS011;39658;51.090;-1.786;2023-04-21T06:09:55;41.50;;;16.05;;
53261;SDS011;39658;51.090;-1.786;2023-04-21T06:12:22;38.97;;;15.15;;
53261;SDS011;39658;51.090;-1.786;2023-04-21T06:14:51;38.20;;;16.05;;
53261;SDS011;39658;51.090;-1.786;2023-04-21T06:17:21;33.97;;;14.40;;
53261;SDS011;39658;51.090;-1.786;2023-04-21T06:19:48;29.77;;;13.57;;
53261;SDS011;39658;51.090;-1.786;2023-04-21T06:22:17;41.60;;;14.98;;
53261;SDS011;39658;51.090;-1.786;2023-04-21T06:24:44;25.83;;;12.00;;
53261;SDS011;39658;51.090;-1.786;2023-04-21T06:27:11;38.67;;;15.95;;
53261;SDS011;39658;51.090;-1.786;2023-04-21T06:29:39;38.05;;;14.25;;
53261;SDS011;39658;51.090;-1.786;2023-04-21T06:32:08;28.13;;;14.38;;
53261;SDS011;39658;51.090;-1.786;2023-04-21T06:34:35;34.58;;;13.70;;
53261;SDS011;39658;51.090;-1.786;2023-04-21T06:37:01;30.05;;;13.05;;
53261;SDS011;39658;51.090;-1.786;2023-04-21T06:39:28;29.35;;;13.88;;
53261;SDS011;39658;51.090;-1.786;2023-04-21T06:41:55;33.25;;;13.70;;
53261;SDS011;39658;51.090;-1.786;2023-04-21T06:44:23;26.48;;;11.65;;
53261;SDS011;39658;51.090;-1.786;2023-04-21T06:46:49;30.63;;;12.27;;
53261;SDS011;39658;51.090;-1.786;2023-04-21T06:49:17;28.88;;;12.52;;
53261;SDS011;39658;51.090;-1.786;2023-04-21T06:51:44;29.83;;;12.82;;
53261;SDS011;39658;51.090;-1.786;2023-04-21T06:54:11;26.73;;;12.00;;
53261;SDS011;39658;51.090;-1.786;2023-04-21T06:56:38;27.95;;;12.20;;
53261;SDS011;39658;51.090;-1.786;2023-04-21T06:59:06;27.17;;;12.05;;
53261;SDS011;39658;51.090;-1.786;2023-04-21T07:01:33;33.90;;;13.02;;
53261;SDS011;39658;51.090;-1.786;2023-04-21T07:04:00;34.83;;;12.50;;
53261;SDS011;39658;51.090;-1.786;2023-04-21T07:06:29;28.73;;;12.00;;
53261;SDS011;39658;51.090;-1.786;2023-04-21T07:08:56;28.65;;;12.60;;
53261;SDS011;39658;51.090;-1.786;2023-04-21T07:11:23;31.85;;;12.35;;
53261;SDS011;39658;51.090;-1.786;2023-04-21T07:13:50;29.13;;;14.85;;
53261;SDS011;39658;51.090;-1.786;2023-04-21T07:16:16;31.55;;;13.65;;
53261;SDS011;39658;51.090;-1.786;2023-04-21T07:18:43;29.55;;;13.27;;
53261;SDS011;39658;51.090;-1.786;2023-04-21T07:21:10;30.52;;;13.52;;
53261;SDS011;39658;51.090;-1.786;2023-04-21T07:23:38;30.80;;;13.02;;
53261;SDS011;39658;51.090;-1.786;2023-04-21T07:26:05;29.35;;;12.93;;
53261;SDS011;39658;51.090;-1.786;2023-04-21T07:28:32;28.25;;;12.80;;
53261;SDS011;39658;51.090;-1.786;2023-04-21T07:30:58;30.42;;;13.07;;
53261;SDS011;39658;51.090;-1.786;2023-04-21T07:33:25;33.80;;;15.00;;
53261;SDS011;39658;51.090;-1.786;2023-04-21T07:35:52;25.23;;;13.30;;
53261;SDS011;39658;51.090;-1.786;2023-04-21T07:38:18;32.17;;;12.73;;
53261;SDS011;39658;51.090;-1.786;2023-04-21T07:40:46;33.63;;;13.80;;
53261;SDS011;39658;51.090;-1.786;2023-04-21T07:43:13;30.23;;;15.38;;
53261;SDS011;39658;51.090;-1.786;2023-04-21T07:45:40;34.10;;;13.70;;
53261;SDS011;39658;51.090;-1.786;2023-04-21T07:48:07;27.50;;;14.35;;
53261;SDS011;39658;51.090;-1.786;2023-04-21T07:50:34;32.47;;;13.43;;
53261;SDS011;39658;51.090;-1.786;2023-04-21T07:53:01;28.77;;;13.40;;
53261;SDS011;39658;51.090;-1.786;2023-04-21T07:55:27;33.35;;;12.85;;
53261;SDS011;39658;51.090;-1.786;2023-04-21T07:57:56;37.50;;;16.15;;
53261;SDS011;39658;51.090;-1.786;2023-04-21T08:00:22;38.47;;;14.07;;
53261;SDS011;39658;51.090;-1.786;2023-04-21T08:02:49;37.35;;;16.42;;
53261;SDS011;39658;51.090;-1.786;2023-04-21T08:05:16;40.58;;;15.20;;
53261;SDS011;39658;51.090;-1.786;2023-04-21T08:07:43;38.08;;;15.63;;
53261;SDS011;39658;51.090;-1.786;2023-04-21T08:10:10;34.95;;;15.77;;
53261;SDS011;39658;51.090;-1.786;2023-04-21T08:12:36;31.85;;;14.95;;
53261;SDS011;39658;51.090;-1.786;2023-04-21T08:15:05;34.42;;;13.25;;
53261;SDS011;39658;51.090;-1.786;2023-04-21T08:17:32;33.33;;;14.10;;
53261;SDS011;39658;51.090;-1.786;2023-04-21T08:20:00;31.48;;;13.20;;
53261;SDS011;39658;51.090;-1.786;2023-04-21T08:22:27;38.05;;;14.70;;
53261;SDS011;39658;51.090;-1.786;2023-04-21T08:24:54;30.40;;;13.95;;
53261;SDS011;39658;51.090;-1.786;2023-04-21T08:27:20;38.33;;;14.77;;
53261;SDS011;39658;51.090;-1.786;2023-04-21T08:29:48;34.33;;;13.48;;
53261;SDS011;39658;51.090;-1.786;2023-04-21T08:32:16;39.20;;;14.07;;
53261;SDS011;39658;51.090;-1.786;2023-04-21T08:34:47;36.92;;;14.27;;
53261;SDS011;39658;51.090;-1.786;2023-04-21T08:37:15;33.30;;;13.57;;
53261;SDS011;39658;51.090;-1.786;2023-04-21T08:39:42;34.00;;;15.23;;
53261;SDS011;39658;51.090;-1.786;2023-04-21T08:42:10;30.77;;;14.10;;
53261;SDS011;39658;51.090;-1.786;2023-04-21T08:44:39;29.80;;;13.82;;
53261;SDS011;39658;51.090;-1.786;2023-04-21T08:47:07;31.25;;;13.52;;
53261;SDS011;39658;51.090;-1.786;2023-04-21T08:49:37;35.42;;;13.15;;
53261;SDS011;39658;51.090;-1.786;2023-04-21T08:52:05;30.30;;;13.85;;
53261;SDS011;39658;51.090;-1.786;2023-04-21T08:54:32;31.45;;;14.45;;
53261;SDS011;39658;51.090;-1.786;2023-04-21T08:57:00;32.25;;;12.70;;
53261;SDS011;39658;51.090;-1.786;2023-04-21T08:59:27;31.73;;;13.07;;
53261;SDS011;39658;51.090;-1.786;2023-04-21T09:02:07;30.80;;;12.35;;
53261;SDS011;39658;51.090;-1.786;2023-04-21T09:04:38;30.98;;;12.63;;
53261;SDS011;39658;51.090;-1.786;2023-04-21T09:07:05;32.78;;;12.93;;
53261;SDS011;39658;51.090;-1.786;2023-04-21T09:09:33;33.28;;;14.02;;
53261;SDS011;39658;51.090;-1.786;2023-04-21T09:12:16;30.42;;;12.85;;
53261;SDS011;39658;51.090;-1.786;2023-04-21T09:14:43;30.88;;;14.55;;
53261;SDS011;39658;51.090;-1.786;2023-04-21T09:17:10;40.00;;;15.73;;
53261;SDS011;39658;51.090;-1.786;2023-04-21T09:19:38;31.73;;;12.55;;
53261;SDS011;39658;51.090;-1.786;2023-04-21T09:22:05;30.60;;;12.25;;
53261;SDS011;39658;51.090;-1.786;2023-04-21T09:24:32;37.25;;;12.65;;
53261;SDS011;39658;51.090;-1.786;2023-04-21T09:26:58;33.85;;;13.77;;
53261;SDS011;39658;51.090;-1.786;2023-04-21T09:29:28;33.55;;;12.95;;
53261;SDS011;39658;51.090;-1.786;2023-04-21T09:31:56;35.22;;;12.65;;
53261;SDS011;39658;51.090;-1.786;2023-04-21T09:34:23;34.35;;;12.73;;
53261;SDS011;39658;51.090;-1.786;2023-04-21T09:36:59;30.42;;;14.27;;
53261;SDS011;39658;51.090;-1.786;2023-04-21T09:39:27;33.88;;;13.55;;
53261;SDS011;39658;51.090;-1.786;2023-04-21T09:41:55;29.98;;;13.35;;
53261;SDS011;39658;51.090;-1.786;2023-04-21T09:44:22;31.83;;;13.20;;
53261;SDS011;39658;51.090;-1.786;2023-04-21T09:46:49;38.38;;;14.00;;
53261;SDS011;39658;51.090;-1.786;2023-04-21T09:49:20;31.35;;;14.32;;
53261;SDS011;39658;51.090;-1.786;2023-04-21T09:51:48;28.45;;;13.25;;
53261;SDS011;39658;51.090;-1.786;2023-04-21T09:54:17;29.17;;;12.40;;
53261;SDS011;39658;51.090;-1.786;2023-04-21T09:56:46;30.65;;;12.10;;
53261;SDS011;39658;51.090;-1.786;2023-04-21T09:59:16;29.33;;;12.23;;
53261;SDS011;39658;51.090;-1.786;2023-04-21T10:01:46;30.80;;;11.88;;
53261;SDS011;39658;51.090;-1.786;2023-04-21T10:04:14;30.10;;;11.57;;
53261;SDS011;39658;51.090;-1.786;2023-04-21T10:06:44;33.97;;;11.85;;
53261;SDS011;39658;51.090;-1.786;2023-04-21T10:09:12;27.55;;;10.80;;
53261;SDS011;39658;51.090;-1.786;2023-04-21T10:11:42;25.70;;;11.60;;
53261;SDS011;39658;51.090;-1.786;2023-04-21T10:14:09;32.75;;;11.63;;
53261;SDS011;39658;51.090;-1.786;2023-04-21T10:16:36;35.53;;;14.93;;
53261;SDS011;39658;51.090;-1.786;2023-04-21T10:19:06;35.80;;;13.60;;
53261;SDS011;39658;51.090;-1.786;2023-04-21T10:21:48;28.08;;;11.25;;
53261;SDS011;39658;51.090;-1.786;2023-04-21T10:24:15;30.50;;;12.98;;
53261;SDS011;39658;51.090;-1.786;2023-04-21T10:26:43;33.25;;;12.88;;
53261;SDS011;39658;51.090;-1.786;2023-04-21T10:29:10;25.27;;;13.02;;
53261;SDS011;39658;51.090;-1.786;2023-04-21T10:31:48;26.75;;;13.05;;
53261;SDS011;39658;51.090;-1.786;2023-04-21T10:39:41;25.60;;;11.50;;
53261;SDS011;39658;51.090;-1.786;2023-04-21T10:42:27;28.42;;;12.90;;
53261;SDS011;39658;51.090;-1.786;2023-04-21T10:45:05;29.83;;;10.88;;
53261;SDS011;39658;51.090;-1.786;2023-04-21T10:47:40;27.30;;;12.10;;
53261;SDS011;39658;51.090;-1.786;2023-04-21T10:50:10;24.15;;;10.48;;
53261;SDS011;39658;51.090;-1.786;2023-04-21T10:52:38;23.20;;;12.32;;
53261;SDS011;39658;51.090;-1.786;2023-04-21T10:55:08;27.73;;;12.00;;
53261;SDS011;39658;51.090;-1.786;2023-04-21T10:57:40;27.05;;;12.10;;
53261;SDS011;39658;51.090;-1.786;2023-04-21T11:00:08;28.55;;;10.50;;
53261;SDS011;39658;51.090;-1.786;2023-04-21T11:02:36;23.67;;;11.63;;
53261;SDS011;39658;51.090;-1.786;2023-04-21T11:05:03;25.63;;;12.32;;
53261;SDS011;39658;51.090;-1.786;2023-04-21T11:07:31;27.20;;;12.55;;
53261;SDS011;39658;51.090;-1.786;2023-04-21T11:09:58;26.67;;;12.45;;
53261;SDS011;39658;51.090;-1.786;2023-04-21T11:12:26;28.60;;;11.57;;
53261;SDS011;39658;51.090;-1.786;2023-04-21T11:14:56;25.38;;;11.55;;
53261;SDS011;39658;51.090;-1.786;2023-04-21T11:17:23;25.48;;;11.00;;
53261;SDS011;39658;51.090;-1.786;2023-04-21T11:19:51;28.55;;;12.35;;
53261;SDS011;39658;51.090;-1.786;2023-04-21T11:22:20;26.42;;;10.77;;
53261;SDS011;39658;51.090;-1.786;2023-04-21T11:24:50;27.60;;;13.05;;
53261;SDS011;39658;51.090;-1.786;2023-04-21T11:27:18;22.98;;;10.88;;
53261;SDS011;39658;51.090;-1.786;2023-04-21T11:29:46;24.17;;;11.50;;
53261;SDS011;39658;51.090;-1.786;2023-04-21T11:32:15;22.95;;;10.88;;
53261;SDS011;39658;51.090;-1.786;2023-04-21T11:34:42;25.08;;;11.00;;
53261;SDS011;39658;51.090;-1.786;2023-04-21T11:37:13;23.88;;;10.80;;
53261;SDS011;39658;51.090;-1.786;2023-04-21T11:39:41;24.30;;;10.80;;
53261;SDS011;39658;51.090;-1.786;2023-04-21T11:42:08;25.70;;;11.73;;
53261;SDS011;39658;51.090;-1.786;2023-04-21T11:44:36;29.80;;;12.10;;
53261;SDS011;39658;51.090;-1.786;2023-04-21T11:47:11;25.92;;;11.52;;
53261;SDS011;39658;51.090;-1.786;2023-04-21T11:49:44;23.13;;;10.23;;
53261;SDS011;39658;51.090;-1.786;2023-04-21T11:52:18;23.80;;;11.63;;
53261;SDS011;39658;51.090;-1.786;2023-04-21T11:54:53;23.90;;;10.70;;
53261;SDS011;39658;51.090;-1.786;2023-04-21T11:57:23;23.38;;;11.18;;
53261;SDS011;39658;51.090;-1.786;2023-04-21T11:59:50;24.92;;;10.80;;
53261;SDS011;39658;51.090;-1.786;2023-04-21T12:02:21;24.77;;;11.35;;
53261;SDS011;39658;51.090;-1.786;2023-04-21T12:05:01;21.55;;;9.88;;
53261;SDS011;39658;51.090;-1.786;2023-04-21T12:07:29;22.98;;;9.55;;
53261;SDS011;39658;51.090;-1.786;2023-04-21T12:09:57;23.08;;;10.48;;
53261;SDS011;39658;51.090;-1.786;2023-04-21T12:12:24;20.40;;;9.27;;
53261;SDS011;39658;51.090;-1.786;2023-04-21T12:14:51;25.20;;;9.77;;
53261;SDS011;39658;51.090;-1.786;2023-04-21T12:17:18;20.30;;;9.95;;
53261;SDS011;39658;51.090;-1.786;2023-04-21T12:19:45;21.27;;;9.75;;
53261;SDS011;39658;51.090;-1.786;2023-04-21T12:22:14;22.17;;;10.15;;
53261;SDS011;39658;51.090;-1.786;2023-04-21T12:24:42;25.45;;;10.57;;
53261;SDS011;39658;51.090;-1.786;2023-04-21T12:27:10;21.30;;;10.60;;
53261;SDS011;39658;51.090;-1.786;2023-04-21T12:29:37;21.80;;;10.32;;
53261;SDS011;39658;51.090;-1.786;2023-04-21T12:32:05;24.20;;;11.32;;
53261;SDS011;39658;51.090;-1.786;2023-04-21T12:34:32;29.13;;;11.27;;
53261;SDS011;39658;51.090;-1.786;2023-04-21T12:36:59;21.23;;;9.73;;
53261;SDS011;39658;51.090;-1.786;2023-04-21T12:39:27;40.17;;;13.82;;
53261;SDS011;39658;51.090;-1.786;2023-04-21T12:41:54;28.58;;;12.35;;
53261;SDS011;39658;51.090;-1.786;2023-04-21T12:44:21;26.55;;;13.40;;
53261;SDS011;39658;51.090;-1.786;2023-04-21T12:46:48;26.17;;;10.65;;
53261;SDS011;39658;51.090;-1.786;2023-04-21T12:49:15;20.88;;;8.93;;
53261;SDS011;39658;51.090;-1.786;2023-04-21T12:51:42;24.80;;;9.70;;
53261;SDS011;39658;51.090;-1.786;2023-04-21T12:54:09;22.75;;;8.82;;
53261;SDS011;39658;51.090;-1.786;2023-04-21T12:56:38;23.25;;;10.18;;
53261;SDS011;39658;51.090;-1.786;2023-04-21T12:59:06;20.45;;;8.80;;
53261;SDS011;39658;51.090;-1.786;2023-04-21T13:01:34;23.02;;;8.88;;
53261;SDS011;39658;51.090;-1.786;2023-04-21T13:04:01;19.52;;;9.05;;
53261;SDS011;39658;51.090;-1.786;2023-04-21T13:06:28;24.92;;;9.70;;
53261;SDS011;39658;51.090;-1.786;2023-04-21T13:08:57;21.77;;;11.05;;
53261;SDS011;39658;51.090;-1.786;2023-04-21T13:11:23;22.45;;;9.48;;
53261;SDS011;39658;51.090;-1.786;2023-04-21T13:13:52;20.67;;;9.77;;
53261;SDS011;39658;51.090;-1.786;2023-04-21T13:16:18;25.85;;;9.80;;
53261;SDS011;39658;51.090;-1.786;2023-04-21T13:18:45;20.48;;;9.88;;
53261;SDS011;39658;51.090;-1.786;2023-04-21T13:21:12;28.63;;;10.60;;
53261;SDS011;39658;51.090;-1.786;2023-04-21T13:23:39;21.50;;;9.70;;
53261;SDS011;39658;51.090;-1.786;2023-04-21T13:26:06;22.27;;;8.68;;
53261;SDS011;39658;51.090;-1.786;2023-04-21T13:28:33;20.65;;;9.15;;
53261;SDS011;39658;51.090;-1.786;2023-04-21T13:31:02;22.20;;;9.32;;
53261;SDS011;39658;51.090;-1.786;2023-04-21T13:33:29;23.50;;;9.27;;
53261;SDS011;39658;51.090;-1.786;2023-04-21T13:35:59;21.05;;;8.63;;
53261;SDS011;39658;51.090;-1.786;2023-04-21T13:38:26;19.85;;;9.50;;
53261;SDS011;39658;51.090;-1.786;2023-04-21T13:40:52;22.23;;;9.63;;
53261;SDS011;39658;51.090;-1.786;2023-04-21T13:43:19;20.15;;;8.75;;
53261;SDS011;39658;51.090;-1.786;2023-04-21T13:45:46;23.05;;;9.05;;
53261;SDS011;39658;51.090;-1.786;2023-04-21T13:48:17;19.60;;;9.75;;
53261;SDS011;39658;51.090;-1.786;2023-04-21T13:50:44;20.67;;;9.35;;
53261;SDS011;39658;51.090;-1.786;2023-04-21T13:53:11;22.05;;;10.02;;
53261;SDS011;39658;51.090;-1.786;2023-04-21T13:55:40;19.85;;;8.98;;
53261;SDS011;39658;51.090;-1.786;2023-04-21T13:58:07;23.02;;;11.38;;
53261;SDS011;39658;51.090;-1.786;2023-04-21T14:00:34;25.02;;;11.18;;
53261;SDS011;39658;51.090;-1.786;2023-04-21T14:03:01;20.27;;;9.60;;
53261;SDS011;39658;51.090;-1.786;2023-04-21T14:05:29;17.65;;;8.90;;
53261;SDS011;39658;51.090;-1.786;2023-04-21T14:07:56;19.60;;;9.25;;
53261;SDS011;39658;51.090;-1.786;2023-04-21T14:10:23;18.30;;;9.05;;
53261;SDS011;39658;51.090;-1.786;2023-04-21T14:12:50;16.52;;;7.72;;
53261;SDS011;39658;51.090;-1.786;2023-04-21T14:15:17;18.85;;;8.45;;
53261;SDS011;39658;51.090;-1.786;2023-04-21T14:17:43;19.13;;;10.23;;
53261;SDS011;39658;51.090;-1.786;2023-04-21T14:20:10;18.92;;;9.32;;
53261;SDS011;39658;51.090;-1.786;2023-04-21T14:22:38;16.33;;;8.38;;